Amapari, Brazil
Current Conditions -  °F | °C
As of 12:00 PM on Tuesday 21 Oct 2014 (Local Time) from SBMQ Reporting Station
Scattered Clouds Scattered Clouds  
Wind Chill: 95°   Ceiling: Unl
Heat Index: 105°   Visibility: 6mi
Dew Point: 73°   Wind: 12mph
Humidity: 49%   Direction: 120°ESE
Pressure: 29.85"   Gusts: NA
Location:  0.62°N, 51.65°W
Report Text: SBMQ 211500Z 12010KT 9999 SCT025 35/23 Q1011
Loading
Personal Weather Stations






























Interactive Weather Map
Tropical Storm Tracking
New forecast layout! Learn more

10-Day Weather Forecast

Advertisements
Track Severe Weather on mobile